Time;durP1;ratioP1;P1;durP2;ratioP2;P2;SDS_P1;SDS_P2;PMS_P1;PMS_P2;Temp;Humidity;BMP_temperature;BMP_pressure;BME280_temperature;BME280_humidity;BME280_pressure;Samples;Min_cycle;Max_cycle;Signal;HPM_P1;HPM_P2
2022/09/14 00:01:08;;;;;;;1.80;1.70;;;;;;;;;;5120547;28;20242;-70
2022/09/14 00:03:35;;;;;;;1.90;1.80;;;;;;;;;;5120427;28;20198;-70
2022/09/14 00:06:08;;;;;;;1.90;1.80;;;;;;;;;;5119650;28;20194;-71
2022/09/14 00:08:36;;;;;;;1.92;1.70;;;;;;;;;;5120087;28;20210;-70
2022/09/14 00:11:05;;;;;;;2.35;2.25;;;;;;;;;;5120056;28;20207;-69
2022/09/14 00:13:34;;;;;;;2.00;1.90;;;;;;;;;;5119963;28;20219;-70
2022/09/14 00:16:04;;;;;;;2.10;2.00;;;;;;;;;;5120196;28;20603;-70
2022/09/14 00:18:32;;;;;;;1.77;1.67;;;;;;;;;;5120360;28;20266;-71
2022/09/14 00:21:01;;;;;;;1.73;1.63;;;;;;;;;;5119412;28;20203;-70
2022/09/14 00:23:30;;;;;;;1.88;1.77;;;;;;;;;;5119616;28;20222;-70
2022/09/14 00:26:03;;;;;;;2.13;2.03;;;;;;;;;;5120599;28;20599;-71
2022/09/14 00:28:31;;;;;;;2.22;2.03;;;;;;;;;;5120898;28;20526;-71
2022/09/14 00:30:58;;;;;;;3.03;1.80;;;;;;;;;;5120645;28;20203;-70
2022/09/14 00:33:26;;;;;;;1.90;1.80;;;;;;;;;;5119508;28;20278;-73
2022/09/14 00:35:54;;;;;;;1.80;1.70;;;;;;;;;;5120694;28;20293;-70
2022/09/14 00:38:22;;;;;;;2.00;1.80;;;;;;;;;;5119606;28;20290;-71
2022/09/14 00:40:59;;;;;;;2.67;1.80;;;;;;;;;;5119405;28;20226;-71
2022/09/14 00:43:26;;;;;;;1.88;1.75;;;;;;;;;;5123055;27;20226;-70
2022/09/14 00:45:54;;;;;;;2.00;1.90;;;;;;;;;;5132337;27;20202;-70
2022/09/14 00:48:23;;;;;;;2.10;1.90;;;;;;;;;;5140696;27;20202;-70
2022/09/14 00:50:52;;;;;;;1.98;1.80;;;;;;;;;;5140447;27;20203;-69
2022/09/14 00:53:20;;;;;;;1.80;1.70;;;;;;;;;;5138901;27;20202;-70
2022/09/14 00:55:48;;;;;;;1.92;1.80;;;;;;;;;;5140032;27;20221;-70
2022/09/14 00:58:18;;;;;;;2.33;1.65;;;;;;;;;;5139310;27;20202;-70
2022/09/14 01:00:46;;;;;;;1.70;1.60;;;;;;;;;;5139479;27;20218;-70
2022/09/14 01:03:13;;;;;;;1.95;1.83;;;;;;;;;;5139288;27;20594;-69
2022/09/14 01:05:53;;;;;;;2.05;1.85;;;;;;;;;;5139587;27;20202;-70
2022/09/14 01:08:36;;;;;;;2.20;2.00;;;;;;;;;;5140396;27;20680;-69
2022/09/14 01:11:17;;;;;;;2.15;1.95;;;;;;;;;;5140304;27;20754;-69
2022/09/14 01:13:49;;;;;;;1.80;1.70;;;;;;;;;;5140093;27;20198;-70
2022/09/14 01:16:24;;;;;;;2.05;1.95;;;;;;;;;;5139807;27;20567;-70
2022/09/14 01:18:55;;;;;;;1.70;1.60;;;;;;;;;;5140059;27;20235;-69
2022/09/14 01:21:25;;;;;;;1.70;1.60;;;;;;;;;;5140003;27;20287;-70
2022/09/14 01:23:56;;;;;;;2.20;2.00;;;;;;;;;;5123114;27;20206;-71
2022/09/14 01:26:35;;;;;;;1.98;1.67;;;;;;;;;;5140433;27;20247;-71
2022/09/14 01:29:06;;;;;;;2.67;1.70;;;;;;;;;;5140553;27;20260;-70
2022/09/14 01:31:37;;;;;;;2.03;1.80;;;;;;;;;;5139369;27;20221;-71
2022/09/14 01:34:08;;;;;;;1.80;1.70;;;;;;;;;;5139419;27;20260;-73
2022/09/14 01:36:37;;;;;;;1.75;1.65;;;;;;;;;;5139650;27;20250;-71
2022/09/14 01:39:05;;;;;;;2.00;1.80;;;;;;;;;;5139592;27;20279;-72
2022/09/14 01:41:34;;;;;;;2.03;1.73;;;;;;;;;;5139649;27;20247;-72
2022/09/14 01:44:04;;;;;;;2.97;1.77;;;;;;;;;;5126648;27;20238;-72
2022/09/14 01:46:37;;;;;;;1.90;1.60;;;;;;;;;;5118955;28;20246;-72
2022/09/14 01:49:09;;;;;;;2.00;1.90;;;;;;;;;;5118886;28;20207;-72
2022/09/14 01:51:39;;;;;;;1.90;1.80;;;;;;;;;;5118539;28;20217;-72
2022/09/14 01:54:08;;;;;;;1.75;1.65;;;;;;;;;;5131075;27;20210;-72
2022/09/14 01:56:40;;;;;;;1.85;1.70;;;;;;;;;;5139352;27;20212;-71
2022/09/14 01:59:10;;;;;;;1.92;1.80;;;;;;;;;;5139445;27;20598;-71
2022/09/14 02:01:42;;;;;;;1.50;1.40;;;;;;;;;;5139506;27;20571;-71
2022/09/14 02:04:13;;;;;;;2.28;1.52;;;;;;;;;;5119110;27;20638;-71
2022/09/14 02:06:41;;;;;;;1.90;1.80;;;;;;;;;;5118430;28;20294;-71
2022/09/14 02:09:10;;;;;;;1.63;1.52;;;;;;;;;;5118784;28;20673;-71
2022/09/14 02:11:38;;;;;;;4.20;1.92;;;;;;;;;;5118370;28;20211;-71
2022/09/14 02:14:06;;;;;;;1.70;1.60;;;;;;;;;;5137790;27;20237;-71
2022/09/14 02:16:34;;;;;;;2.17;1.70;;;;;;;;;;5139391;27;20330;-71
2022/09/14 02:19:04;;;;;;;1.80;1.70;;;;;;;;;;5139495;27;20206;-71
2022/09/14 02:21:33;;;;;;;2.15;1.48;;;;;;;;;;5139481;27;20210;-71
2022/09/14 02:24:01;;;;;;;1.80;1.70;;;;;;;;;;5120146;27;20256;-71
2022/09/14 02:26:30;;;;;;;1.92;1.80;;;;;;;;;;5118087;28;20519;-71
2022/09/14 02:28:58;;;;;;;1.70;1.60;;;;;;;;;;5118353;28;20209;-71
2022/09/14 02:31:28;;;;;;;1.90;1.80;;;;;;;;;;5118275;28;20211;-71
2022/09/14 02:34:03;;;;;;;1.75;1.65;;;;;;;;;;5135643;27;20206;-71
2022/09/14 02:36:35;;;;;;;1.92;1.83;;;;;;;;;;5139553;27;20202;-71
2022/09/14 02:39:05;;;;;;;1.65;1.55;;;;;;;;;;5139448;27;20574;-72
2022/09/14 02:41:38;;;;;;;1.70;1.60;;;;;;;;;;5139517;27;20202;-71
2022/09/14 02:44:13;;;;;;;1.70;1.60;;;;;;;;;;5124230;27;20221;-71
2022/09/14 02:46:46;;;;;;;1.77;1.67;;;;;;;;;;5138697;27;20213;-71
2022/09/14 02:49:17;;;;;;;3.33;1.80;;;;;;;;;;5138759;27;20224;-71
2022/09/14 02:51:50;;;;;;;2.20;2.00;;;;;;;;;;5138984;27;20202;-71
2022/09/14 02:54:19;;;;;;;1.90;1.80;;;;;;;;;;5137258;27;20282;-71
2022/09/14 02:56:47;;;;;;;1.77;1.67;;;;;;;;;;5139074;27;20203;-71
2022/09/14 02:59:15;;;;;;;1.98;1.83;;;;;;;;;;5138102;27;20202;-71
2022/09/14 03:01:42;;;;;;;2.08;1.88;;;;;;;;;;5138756;27;20209;-71
2022/09/14 03:04:10;;;;;;;1.77;1.67;;;;;;;;;;5136993;27;20273;-71
2022/09/14 03:06:38;;;;;;;1.73;1.63;;;;;;;;;;5138579;27;20595;-72
2022/09/14 03:09:07;;;;;;;1.90;1.80;;;;;;;;;;5138178;27;20230;-72
2022/09/14 03:11:35;;;;;;;1.90;1.80;;;;;;;;;;5138302;27;20213;-71
2022/09/14 03:14:03;;;;;;;2.30;1.80;;;;;;;;;;5137485;28;20289;-71
2022/09/14 03:16:31;;;;;;;2.05;1.95;;;;;;;;;;5139947;27;20209;-71
2022/09/14 03:18:59;;;;;;;1.73;1.63;;;;;;;;;;5141930;27;20516;-71
2022/09/14 03:21:26;;;;;;;1.75;1.65;;;;;;;;;;5142268;27;20248;-71
2022/09/14 03:23:56;;;;;;;1.92;1.83;;;;;;;;;;5141012;27;20198;-71
2022/09/14 03:26:27;;;;;;;2.03;1.90;;;;;;;;;;5141654;27;20258;-71
2022/09/14 03:28:56;;;;;;;1.90;1.80;;;;;;;;;;5141422;27;20263;-72
2022/09/14 03:31:24;;;;;;;2.63;2.08;;;;;;;;;;5142083;27;20609;-72
2022/09/14 03:33:54;;;;;;;2.00;1.80;;;;;;;;;;5140848;27;20198;-71
2022/09/14 03:36:22;;;;;;;2.08;1.92;;;;;;;;;;5142211;27;20209;-71
2022/09/14 03:38:52;;;;;;;1.80;1.70;;;;;;;;;;5141378;27;20244;-71
2022/09/14 03:41:21;;;;;;;1.80;1.70;;;;;;;;;;5141395;27;20226;-71
2022/09/14 03:43:50;;;;;;;1.88;1.77;;;;;;;;;;5140520;27;20230;-71
2022/09/14 03:46:19;;;;;;;1.80;1.70;;;;;;;;;;5140820;27;20231;-71
2022/09/14 03:48:47;;;;;;;2.20;1.80;;;;;;;;;;5141056;27;20206;-71
2022/09/14 03:51:15;;;;;;;1.95;1.85;;;;;;;;;;5141069;27;20217;-71
2022/09/14 03:53:43;;;;;;;2.10;1.90;;;;;;;;;;5141014;27;20198;-71
2022/09/14 03:56:12;;;;;;;1.98;1.88;;;;;;;;;;5141270;27;20241;-71
2022/09/14 03:58:40;;;;;;;2.00;1.90;;;;;;;;;;5140533;27;20203;-71
2022/09/14 04:01:10;;;;;;;1.80;1.67;;;;;;;;;;5141318;27;20254;-71
2022/09/14 04:03:38;;;;;;;1.67;1.58;;;;;;;;;;5140464;27;20199;-71
2022/09/14 04:06:06;;;;;;;2.00;1.77;;;;;;;;;;5141132;27;20201;-71
2022/09/14 04:08:34;;;;;;;1.90;1.80;;;;;;;;;;5141691;27;20220;-71
2022/09/14 04:11:07;;;;;;;2.00;1.80;;;;;;;;;;5140674;27;20198;-71
2022/09/14 04:13:34;;;;;;;1.70;1.60;;;;;;;;;;5140530;27;20289;-71
2022/09/14 04:16:03;;;;;;;1.80;1.70;;;;;;;;;;5140649;27;20202;-71
2022/09/14 04:18:32;;;;;;;2.10;1.90;;;;;;;;;;5140955;27;20202;-71
2022/09/14 04:21:00;;;;;;;1.70;1.60;;;;;;;;;;5139867;27;20222;-72
2022/09/14 04:23:28;;;;;;;2.17;1.75;;;;;;;;;;5139853;27;20259;-71
2022/09/14 04:25:56;;;;;;;1.90;1.80;;;;;;;;;;5139327;27;20208;-71
2022/09/14 04:28:24;;;;;;;1.60;1.50;;;;;;;;;;5140533;27;20219;-71
2022/09/14 04:30:59;;;;;;;1.70;1.60;;;;;;;;;;5139305;27;20297;-71
2022/09/14 04:33:27;;;;;;;1.80;1.70;;;;;;;;;;5138696;27;20225;-71
2022/09/14 04:36:01;;;;;;;2.03;1.83;;;;;;;;;;5139449;27;20209;-71
2022/09/14 04:38:29;;;;;;;1.88;1.77;;;;;;;;;;5139561;27;20251;-71
2022/09/14 04:40:57;;;;;;;1.80;1.70;;;;;;;;;;5139426;27;20283;-71
2022/09/14 04:43:25;;;;;;;1.80;1.70;;;;;;;;;;5136054;27;20245;-71
2022/09/14 04:45:54;;;;;;;1.63;1.52;;;;;;;;;;5129872;27;20206;-71
2022/09/14 04:48:22;;;;;;;1.67;1.58;;;;;;;;;;5138175;27;20490;-71
2022/09/14 04:50:49;;;;;;;1.90;1.70;;;;;;;;;;5137958;27;20230;-71
2022/09/14 04:53:19;;;;;;;1.67;1.58;;;;;;;;;;5137611;27;20625;-71
2022/09/14 04:55:46;;;;;;;1.70;1.60;;;;;;;;;;5137254;27;20204;-71
2022/09/14 04:58:14;;;;;;;1.92;1.73;;;;;;;;;;5139038;27;20465;-71
2022/09/14 05:00:42;;;;;;;1.80;1.70;;;;;;;;;;5137527;27;20217;-71
2022/09/14 05:03:10;;;;;;;1.80;1.70;;;;;;;;;;5130727;27;20195;-71
2022/09/14 05:05:38;;;;;;;1.80;1.70;;;;;;;;;;5134339;27;20210;-71
2022/09/14 05:08:06;;;;;;;1.80;1.70;;;;;;;;;;5137599;27;20482;-71
2022/09/14 05:10:36;;;;;;;1.90;1.80;;;;;;;;;;5136472;27;20268;-71
2022/09/14 05:13:04;;;;;;;1.80;1.70;;;;;;;;;;5135299;27;20198;-71
2022/09/14 05:15:31;;;;;;;1.63;1.52;;;;;;;;;;5136763;27;20586;-71
2022/09/14 05:17:59;;;;;;;1.80;1.70;;;;;;;;;;5136731;27;20198;-71
2022/09/14 05:20:27;;;;;;;1.92;1.83;;;;;;;;;;5135853;27;20232;-71
2022/09/14 05:22:55;;;;;;;2.00;1.90;;;;;;;;;;5136265;27;20725;-71
2022/09/14 05:25:23;;;;;;;1.60;1.50;;;;;;;;;;5137297;27;20493;-71
2022/09/14 05:27:53;;;;;;;1.52;1.42;;;;;;;;;;5136358;27;20213;-71
2022/09/14 05:30:21;;;;;;;1.70;1.60;;;;;;;;;;5136394;27;20241;-72
2022/09/14 05:32:49;;;;;;;1.50;1.40;;;;;;;;;;5135088;27;20508;-71
2022/09/14 05:35:17;;;;;;;1.75;1.65;;;;;;;;;;5135417;27;20237;-71
2022/09/14 05:37:45;;;;;;;1.77;1.67;;;;;;;;;;5136894;27;20202;-71
2022/09/14 05:40:12;;;;;;;2.00;1.80;;;;;;;;;;5135243;27;20226;-73
2022/09/14 05:42:40;;;;;;;1.55;1.45;;;;;;;;;;5134885;27;20216;-71
2022/09/14 05:45:10;;;;;;;1.88;1.77;;;;;;;;;;5135073;27;20246;-73
2022/09/14 05:47:38;;;;;;;1.92;1.60;;;;;;;;;;5134519;27;20209;-71
2022/09/14 05:50:07;;;;;;;1.92;1.83;;;;;;;;;;5133953;27;20263;-71
2022/09/14 05:52:35;;;;;;;1.85;1.75;;;;;;;;;;5135851;27;20202;-71
2022/09/14 05:55:03;;;;;;;2.00;1.90;;;;;;;;;;5136709;27;20194;-72
2022/09/14 05:57:31;;;;;;;2.55;2.30;;;;;;;;;;5136395;27;20206;-73
2022/09/14 05:59:59;;;;;;;3.25;2.20;;;;;;;;;;5135043;27;20231;-73
2022/09/14 06:02:28;;;;;;;3.00;2.30;;;;;;;;;;5136637;27;20304;-72
2022/09/14 06:04:56;;;;;;;2.92;2.22;;;;;;;;;;5135341;27;20213;-72
2022/09/14 06:07:24;;;;;;;3.30;2.38;;;;;;;;;;5136349;27;20242;-72
2022/09/14 06:09:52;;;;;;;3.80;2.38;;;;;;;;;;5136575;27;20190;-71
2022/09/14 06:12:19;;;;;;;5.35;3.13;;;;;;;;;;5137002;27;20224;-71
2022/09/14 06:14:48;;;;;;;5.60;2.65;;;;;;;;;;5136822;27;20692;-72
2022/09/14 06:17:16;;;;;;;3.95;2.65;;;;;;;;;;5136532;27;20666;-71
2022/09/14 06:19:45;;;;;;;4.07;2.40;;;;;;;;;;5135145;27;20194;-73
2022/09/14 06:22:13;;;;;;;4.22;2.80;;;;;;;;;;5136736;27;20316;-71
2022/09/14 06:24:41;;;;;;;3.50;2.65;;;;;;;;;;5137116;27;20306;-71
2022/09/14 06:27:09;;;;;;;3.85;2.67;;;;;;;;;;5136550;27;20285;-71
2022/09/14 06:29:36;;;;;;;5.53;2.97;;;;;;;;;;5136676;27;20186;-71
2022/09/14 06:32:04;;;;;;;5.07;3.00;;;;;;;;;;5136417;27;20205;-72
2022/09/14 06:34:32;;;;;;;4.53;3.08;;;;;;;;;;5135963;27;20515;-73
2022/09/14 06:37:02;;;;;;;3.72;2.80;;;;;;;;;;5136186;27;20203;-71
2022/09/14 06:39:29;;;;;;;4.30;2.92;;;;;;;;;;5135360;27;20321;-71
2022/09/14 06:41:57;;;;;;;2.85;2.50;;;;;;;;;;5136914;27;20535;-72
2022/09/14 06:44:25;;;;;;;4.55;2.80;;;;;;;;;;5136747;27;20242;-71
2022/09/14 06:46:53;;;;;;;3.00;2.70;;;;;;;;;;5128138;27;20234;-71
2022/09/14 06:49:22;;;;;;;4.18;2.70;;;;;;;;;;5135162;27;20625;-71
2022/09/14 06:51:50;;;;;;;4.35;2.85;;;;;;;;;;5127094;27;20202;-72
2022/09/14 06:54:19;;;;;;;4.43;2.88;;;;;;;;;;5136580;27;20209;-72
2022/09/14 06:56:47;;;;;;;4.75;2.80;;;;;;;;;;5137758;27;20202;-73
2022/09/14 06:59:17;;;;;;;5.00;2.97;;;;;;;;;;5136827;27;20305;-72
2022/09/14 07:01:44;;;;;;;6.10;2.97;;;;;;;;;;5116149;28;20309;-71
2022/09/14 07:04:13;;;;;;;3.95;3.05;;;;;;;;;;5116209;28;20598;-72
2022/09/14 07:06:42;;;;;;;4.22;2.90;;;;;;;;;;5115616;28;20221;-72
2022/09/14 07:09:10;;;;;;;4.40;2.67;;;;;;;;;;5116387;28;20203;-71
2022/09/14 07:11:39;;;;;;;3.55;2.97;;;;;;;;;;5135832;28;20194;-71
2022/09/14 07:14:07;;;;;;;2.95;2.75;;;;;;;;;;5136568;28;20645;-71
2022/09/14 07:16:36;;;;;;;4.65;3.17;;;;;;;;;;5136738;28;20293;-71
2022/09/14 07:19:05;;;;;;;4.00;2.95;;;;;;;;;;5136470;28;20271;-72
2022/09/14 07:21:33;;;;;;;4.60;2.97;;;;;;;;;;5125948;27;20230;-72
2022/09/14 07:24:01;;;;;;;3.85;2.67;;;;;;;;;;5135860;27;20202;-72
2022/09/14 07:26:30;;;;;;;3.22;2.88;;;;;;;;;;5136091;27;20202;-72
2022/09/14 07:29:01;;;;;;;4.75;3.22;;;;;;;;;;5135922;27;20245;-72
2022/09/14 07:31:30;;;;;;;3.47;2.67;;;;;;;;;;5135306;27;20206;-72
2022/09/14 07:33:58;;;;;;;4.80;2.88;;;;;;;;;;5136251;28;20242;-72
2022/09/14 07:36:27;;;;;;;3.83;2.97;;;;;;;;;;5136513;28;20206;-72
2022/09/14 07:38:56;;;;;;;4.88;3.20;;;;;;;;;;5136179;28;20206;-72
2022/09/14 07:41:25;;;;;;;5.68;3.00;;;;;;;;;;5125702;28;20210;-72
2022/09/14 07:43:53;;;;;;;4.05;2.90;;;;;;;;;;5135401;28;20238;-72
2022/09/14 07:46:22;;;;;;;4.47;3.10;;;;;;;;;;5136612;28;20206;-72
2022/09/14 07:48:55;;;;;;;4.68;3.17;;;;;;;;;;5135121;28;20203;-72
2022/09/14 07:51:22;;;;;;;4.63;2.95;;;;;;;;;;5119091;28;20196;-72
2022/09/14 07:53:50;;;;;;;4.20;2.95;;;;;;;;;;5135920;28;20302;-72
2022/09/14 07:56:17;;;;;;;6.93;3.00;;;;;;;;;;5136523;27;20297;-72
2022/09/14 07:58:45;;;;;;;3.97;2.80;;;;;;;;;;5136061;27;20618;-72
2022/09/14 08:01:13;;;;;;;3.90;2.72;;;;;;;;;;5134786;27;20228;-72
2022/09/14 08:03:43;;;;;;;3.58;2.60;;;;;;;;;;5139089;27;20245;-71
2022/09/14 08:06:11;;;;;;;3.65;2.88;;;;;;;;;;5139704;27;20202;-71
2022/09/14 08:08:42;;;;;;;3.55;2.80;;;;;;;;;;5139493;27;20542;-71
2022/09/14 08:11:11;;;;;;;3.80;2.70;;;;;;;;;;5125053;27;20626;-71
2022/09/14 08:13:39;;;;;;;3.92;2.58;;;;;;;;;;5128447;27;20206;-73
2022/09/14 08:16:07;;;;;;;5.13;3.17;;;;;;;;;;5139447;27;20230;-72
2022/09/14 08:18:35;;;;;;;3.60;2.58;;;;;;;;;;5139602;27;20293;-72
2022/09/14 08:21:08;;;;;;;4.07;3.10;;;;;;;;;;5137981;27;20621;-72
2022/09/14 08:23:36;;;;;;;4.15;2.70;;;;;;;;;;5139208;27;20202;-72
2022/09/14 08:26:04;;;;;;;5.43;3.10;;;;;;;;;;5139184;27;20309;-72
2022/09/14 08:28:32;;;;;;;3.50;2.47;;;;;;;;;;5139090;27;20549;-72
2022/09/14 08:31:04;;;;;;;3.50;2.83;;;;;;;;;;5126526;27;20203;-72
2022/09/14 08:33:32;;;;;;;4.07;2.58;;;;;;;;;;5127292;27;20681;-72
2022/09/14 08:35:59;;;;;;;3.38;2.90;;;;;;;;;;5139149;27;20293;-72
2022/09/14 08:38:28;;;;;;;4.75;3.03;;;;;;;;;;5139203;27;20565;-72
2022/09/14 08:40:56;;;;;;;3.65;2.70;;;;;;;;;;5139237;27;20301;-74
2022/09/14 08:43:25;;;;;;;2.80;2.45;;;;;;;;;;5139229;27;20563;-71
2022/09/14 08:45:55;;;;;;;3.83;2.47;;;;;;;;;;5139337;27;20210;-71
2022/09/14 08:48:24;;;;;;;4.28;2.75;;;;;;;;;;5138941;27;20202;-71
2022/09/14 08:50:53;;;;;;;2.47;2.28;;;;;;;;;;5131884;27;20198;-72
2022/09/14 08:53:21;;;;;;;2.38;2.17;;;;;;;;;;5137319;27;20485;-73
2022/09/14 08:55:54;;;;;;;2.72;2.45;;;;;;;;;;5139399;27;20213;-71
2022/09/14 08:58:27;;;;;;;3.55;2.72;;;;;;;;;;5138870;27;20293;-71
2022/09/14 09:00:57;;;;;;;3.55;2.40;;;;;;;;;;5138793;27;20559;-72
2022/09/14 09:03:32;;;;;;;3.22;2.70;;;;;;;;;;5138147;27;20194;-72
2022/09/14 09:06:03;;;;;;;3.75;2.40;;;;;;;;;;5139066;27;20529;-72
2022/09/14 09:08:34;;;;;;;3.17;2.35;;;;;;;;;;5138104;27;20300;-72
2022/09/14 09:11:06;;;;;;;4.72;2.50;;;;;;;;;;5137504;27;20599;-72
2022/09/14 09:13:35;;;;;;;3.92;2.38;;;;;;;;;;5136927;27;20202;-72
2022/09/14 09:16:04;;;;;;;4.32;2.53;;;;;;;;;;5138016;27;20222;-71
2022/09/14 09:18:35;;;;;;;3.60;2.38;;;;;;;;;;5137898;27;20294;-71
2022/09/14 09:21:05;;;;;;;3.30;2.60;;;;;;;;;;5137598;27;20198;-72
2022/09/14 09:23:34;;;;;;;3.25;2.47;;;;;;;;;;5137633;27;20604;-71
2022/09/14 09:26:05;;;;;;;3.42;2.40;;;;;;;;;;5137253;27;20293;-72
2022/09/14 09:28:35;;;;;;;2.80;2.42;;;;;;;;;;5137058;27;20296;-72
2022/09/14 09:31:05;;;;;;;2.72;2.25;;;;;;;;;;5137295;27;20281;-72
2022/09/14 09:33:34;;;;;;;3.03;2.38;;;;;;;;;;5137747;27;20194;-72
2022/09/14 09:36:01;;;;;;;3.22;2.20;;;;;;;;;;5137225;27;20294;-72
2022/09/14 09:38:30;;;;;;;3.08;2.10;;;;;;;;;;5138390;27;20302;-72
2022/09/14 09:41:00;;;;;;;3.20;2.83;;;;;;;;;;5137073;27;20222;-72
2022/09/14 09:43:28;;;;;;;2.50;2.20;;;;;;;;;;5136234;27;20591;-72
2022/09/14 09:45:58;;;;;;;2.65;2.45;;;;;;;;;;5137457;27;20289;-72
2022/09/14 09:48:28;;;;;;;3.33;2.42;;;;;;;;;;5136350;27;20244;-72
2022/09/14 09:51:08;;;;;;;3.15;2.17;;;;;;;;;;5126989;27;20198;-72
2022/09/14 09:53:37;;;;;;;2.50;2.30;;;;;;;;;;5116006;28;20203;-72
2022/09/14 09:56:05;;;;;;;2.80;2.35;;;;;;;;;;5115609;28;20199;-72
2022/09/14 09:58:35;;;;;;;3.15;2.40;;;;;;;;;;5116619;28;20294;-72
2022/09/14 10:01:05;;;;;;;3.17;2.30;;;;;;;;;;5115104;27;20191;-71
2022/09/14 10:03:34;;;;;;;2.78;2.00;;;;;;;;;;5120839;27;20536;-72
2022/09/14 10:06:08;;;;;;;3.17;2.45;;;;;;;;;;5115113;28;20203;-72
2022/09/14 10:08:41;;;;;;;2.58;2.00;;;;;;;;;;5114564;27;20206;-72
2022/09/14 10:11:29;;;;;;;2.35;2.05;;;;;;;;;;5120546;27;20230;-72
2022/09/14 10:14:00;;;;;;;2.95;2.10;;;;;;;;;;5115134;28;20209;-72
2022/09/14 10:16:32;;;;;;;3.13;2.28;;;;;;;;;;5115656;28;20210;-72
2022/09/14 10:19:01;;;;;;;4.25;2.20;;;;;;;;;;5107093;28;20295;-72
2022/09/14 10:21:30;;;;;;;2.38;1.80;;;;;;;;;;5127006;27;20298;-72
2022/09/14 10:24:06;;;;;;;2.53;2.10;;;;;;;;;;5126062;27;20630;-72
2022/09/14 10:26:37;;;;;;;3.47;2.10;;;;;;;;;;5114826;28;20194;-72
2022/09/14 10:29:26;;;;;;;3.20;2.38;;;;;;;;;;5114907;28;20699;-72
2022/09/14 10:31:56;;;;;;;2.60;2.40;;;;;;;;;;5122596;27;20198;-71
2022/09/14 10:34:24;;;;;;;3.47;2.20;;;;;;;;;;5136299;27;20284;-71
2022/09/14 10:36:54;;;;;;;2.85;2.10;;;;;;;;;;5135898;27;20305;-71
2022/09/14 10:39:26;;;;;;;2.30;2.10;;;;;;;;;;5114975;28;20302;-71
2022/09/14 10:41:56;;;;;;;2.22;2.05;;;;;;;;;;5105979;28;20223;-71
2022/09/14 10:44:47;;;;;;;2.17;1.70;;;;;;;;;;5114674;28;20329;-71
2022/09/14 10:47:25;;;;;;;2.35;2.15;;;;;;;;;;5094801;28;20242;-72
2022/09/14 10:50:01;;;;;;;3.65;2.22;;;;;;;;;;5115937;28;20203;-72
2022/09/14 10:52:34;;;;;;;2.15;1.70;;;;;;;;;;5113712;28;20574;-72
2022/09/14 10:55:11;;;;;;;2.83;2.25;;;;;;;;;;5115289;28;20203;-71
2022/09/14 10:57:44;;;;;;;2.33;2.13;;;;;;;;;;5114604;28;20187;-72
2022/09/14 11:00:13;;;;;;;3.03;2.17;;;;;;;;;;5111471;28;20799;-71
2022/09/14 11:03:07;;;;;;;2.47;2.10;;;;;;;;;;5103816;28;20288;-71
2022/09/14 11:05:38;;;;;;;2.10;1.95;;;;;;;;;;5114449;28;20290;-71
2022/09/14 11:08:13;;;;;;;2.85;2.22;;;;;;;;;;5114810;28;20203;-71
2022/09/14 11:10:45;;;;;;;2.20;2.00;;;;;;;;;;5114976;28;20241;-70
2022/09/14 11:13:22;;;;;;;3.03;1.88;;;;;;;;;;5113549;28;20287;-71
2022/09/14 11:15:55;;;;;;;2.00;1.80;;;;;;;;;;5112876;28;20198;-71
2022/09/14 11:18:28;;;;;;;1.83;1.73;;;;;;;;;;5111583;28;20257;-71
2022/09/14 11:21:04;;;;;;;1.80;1.70;;;;;;;;;;5113859;28;20238;-71
2022/09/14 11:23:38;;;;;;;3.03;1.80;;;;;;;;;;5113391;28;20684;-71
2022/09/14 11:26:09;;;;;;;1.92;1.83;;;;;;;;;;5113971;28;20234;-71
2022/09/14 11:28:40;;;;;;;2.20;1.73;;;;;;;;;;5114769;28;20277;-72
2022/09/14 11:31:11;;;;;;;2.05;1.77;;;;;;;;;;5107091;28;20298;-72
2022/09/14 11:33:41;;;;;;;1.90;1.80;;;;;;;;;;5111473;28;20735;-72
2022/09/14 11:36:15;;;;;;;2.47;2.13;;;;;;;;;;5120344;27;20209;-72
2022/09/14 11:38:44;;;;;;;1.50;1.40;;;;;;;;;;5138980;27;20208;-72
2022/09/14 11:41:18;;;;;;;2.78;1.90;;;;;;;;;;5139259;27;20285;-72
2022/09/14 11:43:48;;;;;;;1.67;1.58;;;;;;;;;;5143784;27;20232;-72
2022/09/14 11:46:18;;;;;;;2.05;1.67;;;;;;;;;;5159760;27;20299;-72
2022/09/14 11:48:49;;;;;;;2.65;1.80;;;;;;;;;;5159127;27;20201;-72
2022/09/14 11:51:22;;;;;;;2.00;1.67;;;;;;;;;;5149313;27;20484;-72
2022/09/14 11:53:50;;;;;;;2.53;1.73;;;;;;;;;;5138599;27;20293;-72
2022/09/14 11:56:25;;;;;;;1.85;1.67;;;;;;;;;;5138427;27;20199;-72
2022/09/14 11:58:54;;;;;;;1.95;1.60;;;;;;;;;;5138545;27;20198;-72
2022/09/14 12:01:34;;;;;;;1.70;1.60;;;;;;;;;;5138537;27;20198;-72
2022/09/14 12:04:12;;;;;;;2.10;1.90;;;;;;;;;;5138418;27;20221;-72
2022/09/14 12:06:46;;;;;;;1.58;1.40;;;;;;;;;;5138750;27;20198;-72
2022/09/14 12:09:38;;;;;;;2.13;1.60;;;;;;;;;;5138351;27;20299;-72
2022/09/14 12:12:07;;;;;;;2.40;1.50;;;;;;;;;;5137838;27;20267;-72
2022/09/14 12:14:39;;;;;;;2.40;1.83;;;;;;;;;;5138397;27;20774;-72
2022/09/14 12:17:14;;;;;;;1.95;1.70;;;;;;;;;;5138465;27;20206;-73
2022/09/14 12:19:41;;;;;;;1.70;1.60;;;;;;;;;;5138530;27;20209;-72
2022/09/14 12:22:21;;;;;;;1.50;1.40;;;;;;;;;;5138156;27;20234;-72
2022/09/14 12:24:58;;;;;;;1.45;1.33;;;;;;;;;;5138001;27;20301;-72
2022/09/14 12:27:25;;;;;;;1.98;1.50;;;;;;;;;;5138131;27;20300;-72
2022/09/14 12:29:53;;;;;;;1.60;1.50;;;;;;;;;;5138233;27;20575;-72
2022/09/14 12:32:28;;;;;;;2.05;1.63;;;;;;;;;;5137425;27;20301;-72
2022/09/14 12:35:14;;;;;;;1.50;1.30;;;;;;;;;;5136222;27;20201;-72
2022/09/14 12:37:43;;;;;;;1.65;1.55;;;;;;;;;;5136587;27;20586;-72
2022/09/14 12:40:24;;;;;;;1.60;1.50;;;;;;;;;;5137306;27;20298;-72
2022/09/14 12:42:52;;;;;;;1.50;1.40;;;;;;;;;;5137811;27;20592;-72
2022/09/14 12:45:37;;;;;;;1.52;1.25;;;;;;;;;;5136758;27;20328;-72
2022/09/14 12:48:04;;;;;;;1.60;1.50;;;;;;;;;;5120215;27;20210;-72
2022/09/14 12:50:34;;;;;;;1.67;1.58;;;;;;;;;;5136544;27;20205;-72
2022/09/14 12:53:09;;;;;;;1.45;1.35;;;;;;;;;;5136716;27;20582;-72
2022/09/14 12:55:54;;;;;;;1.50;1.30;;;;;;;;;;5137799;27;20198;-72
2022/09/14 12:58:31;;;;;;;1.40;1.30;;;;;;;;;;5136409;27;20306;-72
2022/09/14 13:01:04;;;;;;;1.60;1.40;;;;;;;;;;5136988;27;20301;-72
2022/09/14 13:03:58;;;;;;;1.50;1.40;;;;;;;;;;5137102;27;20222;-72
2022/09/14 13:06:30;;;;;;;1.92;1.35;;;;;;;;;;5076318;27;20296;-72
2022/09/14 13:08:59;;;;;;;1.65;1.40;;;;;;;;;;5135952;27;20229;-72
2022/09/14 13:11:29;;;;;;;1.90;1.58;;;;;;;;;;5135817;27;20199;-72
2022/09/14 13:13:57;;;;;;;1.45;1.20;;;;;;;;;;5136038;27;20285;-72
2022/09/14 13:16:31;;;;;;;1.80;1.50;;;;;;;;;;5136357;27;20297;-72
2022/09/14 13:19:03;;;;;;;1.60;1.40;;;;;;;;;;5135339;27;20663;-72
2022/09/14 13:21:31;;;;;;;1.50;1.30;;;;;;;;;;5135769;27;20206;-72
2022/09/14 13:24:00;;;;;;;1.35;1.25;;;;;;;;;;5135058;27;20626;-72
2022/09/14 13:26:30;;;;;;;1.65;1.40;;;;;;;;;;5136980;27;20309;-72
2022/09/14 13:28:59;;;;;;;1.27;1.17;;;;;;;;;;5136383;27;20204;-72
2022/09/14 13:31:29;;;;;;;1.73;1.30;;;;;;;;;;5136285;27;20216;-72
2022/09/14 13:33:57;;;;;;;1.30;1.20;;;;;;;;;;5136494;27;20293;-73
2022/09/14 13:36:25;;;;;;;1.40;1.30;;;;;;;;;;5137003;27;20241;-72
2022/09/14 13:38:53;;;;;;;1.25;1.15;;;;;;;;;;5126966;27;20195;-72
2022/09/14 13:41:23;;;;;;;1.20;1.10;;;;;;;;;;5136130;27;20297;-72
2022/09/14 13:43:53;;;;;;;1.30;1.20;;;;;;;;;;5135947;27;20294;-73
2022/09/14 13:46:20;;;;;;;2.10;1.38;;;;;;;;;;5131124;27;20263;-72
2022/09/14 13:48:48;;;;;;;1.30;1.20;;;;;;;;;;5136430;27;20501;-72
2022/09/14 13:51:16;;;;;;;1.20;1.10;;;;;;;;;;5135557;27;20210;-72
2022/09/14 13:53:47;;;;;;;1.50;1.40;;;;;;;;;;5135951;27;20301;-72
2022/09/14 13:56:32;;;;;;;1.00;1.00;;;;;;;;;;5135660;27;20209;-72
2022/09/14 13:59:21;;;;;;;1.30;1.20;;;;;;;;;;5131431;27;20209;-73
2022/09/14 14:01:55;;;;;;;1.50;1.30;;;;;;;;;;5133827;27;20618;-73
2022/09/14 14:04:24;;;;;;;1.30;1.20;;;;;;;;;;5114373;28;20234;-73
2022/09/14 14:06:59;;;;;;;1.42;1.33;;;;;;;;;;5114807;28;20222;-72
2022/09/14 14:09:38;;;;;;;1.30;1.20;;;;;;;;;;5114037;28;20293;-73
2022/09/14 14:12:06;;;;;;;1.40;1.30;;;;;;;;;;5114024;28;20726;-73
2022/09/14 14:14:35;;;;;;;1.65;1.55;;;;;;;;;;5114489;28;20250;-73
2022/09/14 14:17:23;;;;;;;1.55;1.40;;;;;;;;;;5113307;28;20195;-73
2022/09/14 14:19:51;;;;;;;1.67;1.50;;;;;;;;;;5109646;28;20747;-72
2022/09/14 14:22:20;;;;;;;1.70;1.60;;;;;;;;;;5114387;28;20198;-72
2022/09/14 14:24:48;;;;;;;1.48;1.38;;;;;;;;;;5114625;28;20733;-73
2022/09/14 14:27:33;;;;;;;1.90;1.48;;;;;;;;;;5113558;28;20596;-73
2022/09/14 14:30:03;;;;;;;1.45;1.35;;;;;;;;;;5106832;28;20584;-71
2022/09/14 14:32:31;;;;;;;1.52;1.40;;;;;;;;;;5114437;28;20202;-71
2022/09/14 14:35:04;;;;;;;1.45;1.35;;;;;;;;;;5114272;28;20195;-71
2022/09/14 14:37:31;;;;;;;1.55;1.30;;;;;;;;;;5129795;27;20200;-71
2022/09/14 14:40:00;;;;;;;1.48;1.38;;;;;;;;;;5155256;27;20268;-71
2022/09/14 14:42:33;;;;;;;1.70;1.60;;;;;;;;;;5155351;27;20201;-71
2022/09/14 14:45:02;;;;;;;1.55;1.45;;;;;;;;;;5153613;27;20603;-71
2022/09/14 14:47:30;;;;;;;1.67;1.58;;;;;;;;;;5155365;27;20202;-71
2022/09/14 14:49:58;;;;;;;1.85;1.60;;;;;;;;;;5155010;27;20764;-71
2022/09/14 14:52:25;;;;;;;1.50;1.40;;;;;;;;;;5155344;27;20197;-71
2022/09/14 14:54:53;;;;;;;2.70;1.50;;;;;;;;;;5152562;27;20200;-71
2022/09/14 14:57:20;;;;;;;1.48;1.38;;;;;;;;;;5134793;27;20296;-71
2022/09/14 14:59:51;;;;;;;1.73;1.63;;;;;;;;;;5134184;27;20288;-72
2022/09/14 15:02:20;;;;;;;1.63;1.52;;;;;;;;;;5133885;27;20689;-71